Time;durP1;ratioP1;P1;durP2;ratioP2;P2;SDS_P1;SDS_P2;PMS_P1;PMS_P2;Temp;Humidity;BMP_temperature;BMP_pressure;BME280_temperature;BME280_humidity;BME280_pressure;Samples;Min_cycle;Max_cycle;Signal;HPM_P1;HPM_P2
2021/09/26 00:01:00;;;;;;;4.25;3.75;;;;;;;15.58;76.51;99318.40;1757216;81;21068;-35
2021/09/26 00:03:27;;;;;;;4.97;3.87;;;;;;;15.58;76.56;99323.86;1756873;81;21188;-35
2021/09/26 00:05:53;;;;;;;4.97;3.90;;;;;;;15.60;76.44;99326.97;1757179;81;21490;-35
2021/09/26 00:08:20;;;;;;;5.22;4.00;;;;;;;15.61;76.28;99323.84;1738056;80;21005;-35
2021/09/26 00:10:46;;;;;;;5.85;4.17;;;;;;;15.61;76.29;99328.53;1748837;82;21068;-34
2021/09/26 00:13:13;;;;;;;6.85;4.17;;;;;;;15.60;76.21;99331.06;1748587;82;21096;-35
2021/09/26 00:15:39;;;;;;;5.92;3.15;;;;;;;15.56;76.26;99331.66;1748710;82;21092;-35
2021/09/26 00:18:05;;;;;;;5.03;3.35;;;;;;;15.52;76.25;99337.14;1748534;82;21593;-35
2021/09/26 00:20:32;;;;;;;4.60;3.50;;;;;;;15.52;76.33;99337.14;1744523;81;21516;-35
2021/09/26 00:22:58;;;;;;;5.58;3.75;;;;;;;15.50;76.39;99334.56;1711102;82;20984;-35
2021/09/26 00:25:25;;;;;;;5.62;3.75;;;;;;;15.46;76.46;99337.89;1703647;84;21095;-35
2021/09/26 00:27:51;;;;;;;4.45;3.17;;;;;;;15.44;76.53;99333.42;1703816;84;21163;-35
2021/09/26 00:30:18;;;;;;;6.90;3.70;;;;;;;15.45;76.48;99335.73;1704119;83;21306;-35
2021/09/26 00:32:46;;;;;;;4.75;3.55;;;;;;;15.46;76.42;99331.84;1703294;83;20980;-35
2021/09/26 00:35:12;;;;;;;4.05;3.55;;;;;;;15.46;76.39;99337.89;1703466;84;20988;-35
2021/09/26 00:37:39;;;;;;;4.28;3.40;;;;;;;15.43;76.48;99335.95;1711064;80;21037;-35
2021/09/26 00:40:07;;;;;;;6.97;3.40;;;;;;;15.41;76.52;99340.43;1713775;83;21714;-35
2021/09/26 00:42:33;;;;;;;6.15;3.72;;;;;;;15.43;76.48;99335.95;1713521;83;20957;-35
2021/09/26 00:45:00;;;;;;;4.30;3.60;;;;;;;15.46;76.50;99337.89;1713844;82;21543;-34
2021/09/26 00:47:26;;;;;;;7.92;4.08;;;;;;;15.48;76.37;99349.22;1713358;83;20926;-35
2021/09/26 00:49:53;;;;;;;5.92;3.67;;;;;;;15.45;76.41;99343.16;1727649;82;21018;-34
2021/09/26 00:52:21;;;;;;;5.75;3.33;;;;;;;15.40;76.56;99344.91;1751656;81;21126;-35
2021/09/26 00:54:47;;;;;;;4.60;3.77;;;;;;;15.40;76.55;99341.59;1762773;81;20965;-35
2021/09/26 00:57:14;;;;;;;5.33;3.90;;;;;;;15.42;76.56;99341.22;1763552;81;21080;-35
2021/09/26 00:59:41;;;;;;;9.58;4.28;;;;;;;15.39;76.63;99346.11;1762535;81;21020;-34
2021/09/26 01:02:07;;;;;;;5.47;3.52;;;;;;;15.37;76.70;99347.07;1741864;82;20982;-35
2021/09/26 01:04:34;;;;;;;8.40;3.58;;;;;;;15.39;76.68;99350.20;1743579;80;21779;-35
2021/09/26 01:07:20;;;;;;;4.55;3.30;;;;;;;15.40;76.64;99340.81;1743228;81;20973;-35
2021/09/26 01:10:04;;;;;;;5.78;4.12;;;;;;;15.40;76.58;99346.28;1736745;81;20938;-35
2021/09/26 01:12:48;;;;;;;6.60;3.50;;;;;;;15.36;76.63;99345.51;1734950;81;20982;-35
2021/09/26 01:15:43;;;;;;;4.62;3.42;;;;;;;15.33;76.67;99355.86;1735232;82;21049;-35
2021/09/26 01:18:25;;;;;;;8.88;3.47;;;;;;;15.33;76.56;99364.05;1727703;82;21184;-35
2021/09/26 01:21:04;;;;;;;4.80;3.40;;;;;;;15.31;76.43;99370.48;1739243;82;20965;-35
2021/09/26 01:23:48;;;;;;;4.58;3.70;;;;;;;15.28;76.41;99363.08;1747820;81;21006;-35
2021/09/26 01:26:37;;;;;;;4.47;3.55;;;;;;;15.26;76.16;99370.88;1719443;83;21006;-34
2021/09/26 01:29:46;;;;;;;5.72;3.60;;;;;;;15.21;76.17;99372.83;1719214;83;21082;-35
2021/09/26 01:32:13;;;;;;;6.65;4.25;;;;;;;15.18;76.17;99367.37;1719162;83;21128;-34
2021/09/26 01:34:47;;;;;;;6.35;3.83;;;;;;;15.08;76.28;99373.02;1718842;83;20962;-35
2021/09/26 01:37:21;;;;;;;5.58;3.35;;;;;;;15.05;76.31;99376.54;1718989;83;20950;-34
2021/09/26 01:39:56;;;;;;;8.48;3.60;;;;;;;15.06;76.16;99383.53;1719112;83;21504;-35
2021/09/26 01:42:25;;;;;;;5.70;3.60;;;;;;;15.08;75.94;99388.03;1718550;83;21088;-35
2021/09/26 01:45:03;;;;;;;6.75;3.87;;;;;;;15.07;75.94;99396.61;1682043;85;21555;-35
2021/09/26 01:47:35;;;;;;;4.55;3.55;;;;;;;15.03;75.91;99397.97;1679569;85;20941;-35
2021/09/26 01:50:05;;;;;;;5.20;3.33;;;;;;;15.01;75.81;99398.94;1719023;83;20953;-35
2021/09/26 01:52:34;;;;;;;6.12;3.22;;;;;;;14.97;75.72;99397.38;1681821;85;21574;-35
2021/09/26 01:55:02;;;;;;;8.28;3.58;;;;;;;14.98;75.45;99399.72;1718960;83;21029;-35
2021/09/26 01:57:29;;;;;;;6.03;3.40;;;;;;;14.98;75.05;99410.64;1719117;83;21121;-35
2021/09/26 01:59:59;;;;;;;9.13;3.87;;;;;;;14.91;74.96;99407.88;1719872;80;21519;-35
2021/09/26 02:02:26;;;;;;;7.15;4.03;;;;;;;14.85;74.92;99408.09;1719015;83;20931;-35
2021/09/26 02:04:59;;;;;;;8.00;3.45;;;;;;;14.80;74.89;99408.47;1719023;82;21029;-34
2021/09/26 02:07:24;;;;;;;5.70;3.85;;;;;;;14.78;74.79;99413.52;1718959;83;21084;-35
2021/09/26 02:09:50;;;;;;;7.67;3.98;;;;;;;14.76;74.78;99416.63;1743522;82;21079;-35
2021/09/26 02:12:17;;;;;;;5.70;4.05;;;;;;;14.75;74.75;99417.81;1748904;82;21008;-35
2021/09/26 02:14:43;;;;;;;6.08;3.50;;;;;;;14.73;74.62;99416.62;1748895;82;20950;-34
2021/09/26 02:17:10;;;;;;;8.60;3.72;;;;;;;14.71;74.66;99423.06;1748693;82;21330;-34
2021/09/26 02:19:37;;;;;;;7.70;3.80;;;;;;;14.70;74.70;99422.86;1748739;82;20985;-34
2021/09/26 02:22:05;;;;;;;9.50;4.12;;;;;;;14.67;74.83;99422.24;1741331;82;21142;-35
2021/09/26 02:24:34;;;;;;;6.97;3.85;;;;;;;14.65;74.90;99421.86;1718965;83;20989;-35
2021/09/26 02:27:00;;;;;;;7.15;3.87;;;;;;;14.58;74.97;99419.09;1675124;83;21534;-35
2021/09/26 02:29:27;;;;;;;9.00;4.08;;;;;;;14.53;75.14;99429.02;1710742;83;20982;-34
2021/09/26 02:31:54;;;;;;;7.15;3.60;;;;;;;14.51;75.20;99440.33;1710478;83;21068;-35
2021/09/26 02:34:21;;;;;;;5.72;3.52;;;;;;;14.48;75.39;99442.44;1710668;83;21834;-34
2021/09/26 02:36:47;;;;;;;9.83;4.15;;;;;;;14.42;75.58;99443.21;1710772;83;21037;-35
2021/09/26 02:39:15;;;;;;;9.08;3.62;;;;;;;14.35;75.78;99442.55;1710496;83;20894;-35
2021/09/26 02:42:01;;;;;;;6.00;3.60;;;;;;;14.32;75.91;99440.60;1710755;83;21037;-35
2021/09/26 02:45:01;;;;;;;10.15;4.08;;;;;;;14.35;75.76;99444.70;1683032;83;21080;-34
2021/09/26 02:47:28;;;;;;;6.60;4.22;;;;;;;14.36;75.61;99442.79;1682068;85;21964;-34
2021/09/26 02:49:55;;;;;;;7.42;4.22;;;;;;;14.31;75.69;99436.30;1657071;85;20976;-35
2021/09/26 02:52:22;;;;;;;5.65;3.77;;;;;;;14.30;75.67;99435.52;1682250;85;21017;-35
2021/09/26 02:54:49;;;;;;;7.87;4.28;;;;;;;14.37;75.52;99441.63;1681848;85;21049;-34
2021/09/26 02:57:15;;;;;;;6.22;4.10;;;;;;;14.39;75.44;99443.38;1682090;85;21065;-35
2021/09/26 02:59:42;;;;;;;6.83;3.87;;;;;;;14.39;75.34;99446.11;1682002;85;21831;-35
2021/09/26 03:02:08;;;;;;;6.42;3.72;;;;;;;14.38;75.42;99451.96;1656586;85;21049;-35
2021/09/26 03:04:45;;;;;;;9.55;4.28;;;;;;;14.40;75.40;99456.44;1682161;85;21102;-35
2021/09/26 03:07:13;;;;;;;7.95;3.70;;;;;;;14.43;75.27;99461.90;1682218;85;21040;-35
2021/09/26 03:09:40;;;;;;;8.13;4.15;;;;;;;14.46;75.27;99463.09;1697108;84;21038;-34
2021/09/26 03:12:16;;;;;;;7.62;4.00;;;;;;;14.43;75.27;99462.48;1710653;83;21159;-35
2021/09/26 03:14:43;;;;;;;6.47;3.80;;;;;;;14.38;75.32;99471.05;1718791;82;21539;-35
2021/09/26 03:17:09;;;;;;;9.50;4.08;;;;;;;14.31;75.49;99469.03;1738075;80;20974;-34
2021/09/26 03:19:36;;;;;;;6.85;3.67;;;;;;;14.33;75.51;99468.05;1748708;81;21020;-34
2021/09/26 03:22:04;;;;;;;9.58;4.40;;;;;;;14.34;75.52;99461.44;1752931;81;21575;-34
2021/09/26 03:24:31;;;;;;;7.35;3.92;;;;;;;14.32;75.58;99474.11;1756621;81;21082;-35
2021/09/26 03:26:58;;;;;;;9.88;4.10;;;;;;;14.30;75.59;99470.19;1757001;80;20898;-34
2021/09/26 03:29:24;;;;;;;6.30;4.25;;;;;;;14.33;75.55;99470.78;1756441;81;21069;-35
2021/09/26 03:31:51;;;;;;;7.17;4.22;;;;;;;14.32;75.41;99475.48;1756717;81;22146;-34
2021/09/26 03:34:17;;;;;;;8.90;5.03;;;;;;;14.32;75.50;99479.56;1756573;81;20998;-34
2021/09/26 03:36:44;;;;;;;10.70;4.60;;;;;;;14.29;75.43;99483.03;1756913;81;21051;-35
2021/09/26 03:39:11;;;;;;;5.80;3.83;;;;;;;14.26;75.48;99481.66;1756659;81;21583;-35
2021/09/26 03:41:38;;;;;;;7.95;4.60;;;;;;;14.26;75.50;99483.81;1756544;81;21000;-35
2021/09/26 03:44:04;;;;;;;11.75;4.60;;;;;;;14.27;75.50;99481.87;1755824;80;21024;-35
2021/09/26 03:46:31;;;;;;;6.62;3.83;;;;;;;14.25;75.56;99483.60;1757018;80;20949;-36
2021/09/26 03:48:57;;;;;;;8.50;4.47;;;;;;;14.21;75.58;99486.89;1756493;81;21547;-36
2021/09/26 03:51:24;;;;;;;6.65;3.83;;;;;;;14.15;75.65;99485.68;1756607;81;21925;-36
2021/09/26 03:53:50;;;;;;;8.55;4.47;;;;;;;14.12;75.76;99485.09;1756454;81;21074;-36
2021/09/26 03:56:17;;;;;;;8.75;4.55;;;;;;;14.08;75.96;99491.68;1756781;81;21033;-35
2021/09/26 03:58:43;;;;;;;11.12;3.92;;;;;;;14.01;76.03;99489.67;1756651;81;21582;-36
2021/09/26 04:01:09;;;;;;;8.88;4.17;;;;;;;13.98;76.11;99484.20;1756694;81;21091;-36
2021/09/26 04:03:37;;;;;;;10.88;4.83;;;;;;;13.96;76.07;99481.85;1756327;81;20918;-36
2021/09/26 04:06:06;;;;;;;10.15;4.20;;;;;;;13.96;76.01;99486.52;1756870;81;21507;-36
2021/09/26 04:08:31;;;;;;;9.53;4.55;;;;;;;13.93;75.99;99490.80;1756502;81;21523;-36
2021/09/26 04:10:58;;;;;;;7.42;4.30;;;;;;;13.86;75.99;99491.52;1756909;81;21064;-36
2021/09/26 04:13:24;;;;;;;6.15;4.12;;;;;;;13.80;76.09;99503.91;1738745;81;21974;-35
2021/09/26 04:15:51;;;;;;;7.78;4.35;;;;;;;13.80;76.16;99501.77;1726836;82;20980;-36
2021/09/26 04:18:17;;;;;;;9.55;4.40;;;;;;;13.78;76.12;99498.66;1726494;83;21009;-35
2021/09/26 04:20:43;;;;;;;8.50;4.53;;;;;;;13.76;76.18;99500.38;1726678;83;21081;-36
2021/09/26 04:23:10;;;;;;;6.40;4.25;;;;;;;13.74;76.25;99507.38;1715374;82;21511;-35
2021/09/26 04:25:36;;;;;;;7.70;4.22;;;;;;;13.72;76.34;99508.33;1713521;82;21114;-36
2021/09/26 04:28:03;;;;;;;9.78;4.28;;;;;;;13.74;76.37;99508.75;1713779;82;21608;-36
2021/09/26 04:30:30;;;;;;;5.97;4.17;;;;;;;13.76;76.33;99512.64;1713863;82;21504;-36
2021/09/26 04:32:56;;;;;;;9.18;5.15;;;;;;;13.76;76.34;99521.39;1713702;83;21024;-36
2021/09/26 04:35:22;;;;;;;7.60;4.37;;;;;;;13.71;76.43;99523.10;1740470;82;21069;-36
2021/09/26 04:37:52;;;;;;;10.00;4.92;;;;;;;13.68;76.49;99530.67;1743652;81;21073;-35
2021/09/26 04:40:17;;;;;;;10.85;4.65;;;;;;;13.67;76.50;99527.16;1743189;81;20930;-36
2021/09/26 04:42:43;;;;;;;12.00;4.70;;;;;;;13.68;76.51;99527.95;1735225;80;21500;-35
2021/09/26 04:45:11;;;;;;;9.63;4.42;;;;;;;13.67;76.49;99533.19;1716180;80;20929;-35
2021/09/26 04:47:38;;;;;;;11.50;5.22;;;;;;;13.64;76.59;99535.31;1743339;82;21049;-36
2021/09/26 04:50:06;;;;;;;9.28;4.80;;;;;;;13.59;76.88;99530.20;1743487;82;21540;-36
2021/09/26 04:52:36;;;;;;;7.83;4.85;;;;;;;13.56;77.10;99538.53;1737127;82;20887;-36
2021/09/26 04:55:04;;;;;;;9.65;4.55;;;;;;;13.60;77.20;99540.73;1743266;82;20973;-35
2021/09/26 04:57:31;;;;;;;7.90;4.45;;;;;;;13.69;77.10;99538.48;1743383;82;21790;-36
2021/09/26 04:59:58;;;;;;;6.55;4.17;;;;;;;13.74;76.87;99532.69;1743798;82;21068;-36
2021/09/26 05:02:24;;;;;;;9.70;4.60;;;;;;;13.75;76.86;99536.17;1743156;81;21631;-36
2021/09/26 05:04:51;;;;;;;10.53;4.28;;;;;;;13.78;76.77;99538.16;1743375;82;20966;-35
2021/09/26 05:07:18;;;;;;;12.75;4.40;;;;;;;13.83;76.68;99537.82;1743613;82;21028;-36
2021/09/26 05:09:44;;;;;;;7.70;4.30;;;;;;;13.86;76.49;99538.42;1736489;82;21084;-36
2021/09/26 05:12:11;;;;;;;10.80;5.05;;;;;;;13.86;76.34;99545.23;1730751;82;21014;-36
2021/09/26 05:14:37;;;;;;;9.65;4.45;;;;;;;13.84;76.26;99546.20;1713845;83;21144;-36
2021/09/26 05:17:06;;;;;;;8.20;4.17;;;;;;;13.83;76.30;99547.36;1713506;83;20986;-36
2021/09/26 05:19:32;;;;;;;13.48;4.58;;;;;;;13.89;76.10;99545.86;1713717;83;20953;-35
2021/09/26 05:21:59;;;;;;;11.73;4.42;;;;;;;13.90;75.97;99551.49;1745831;80;21069;-36
2021/09/26 05:24:26;;;;;;;12.98;4.50;;;;;;;13.87;75.87;99548.95;1769529;81;20982;-36
2021/09/26 05:26:53;;;;;;;9.10;4.05;;;;;;;13.87;76.00;99553.62;1769366;81;21094;-36
2021/09/26 05:29:19;;;;;;;6.90;3.90;;;;;;;13.91;75.55;99563.97;1769120;81;20937;-36
2021/09/26 05:31:46;;;;;;;9.75;4.75;;;;;;;13.93;75.42;99567.11;1764399;81;21025;-36
2021/09/26 05:34:14;;;;;;;10.88;4.15;;;;;;;13.96;75.21;99573.73;1751060;82;21033;-35
2021/09/26 05:36:40;;;;;;;10.13;4.10;;;;;;;13.92;74.63;99570.41;1751643;81;20986;-36
2021/09/26 05:39:07;;;;;;;9.23;4.25;;;;;;;13.90;74.73;99578.17;1768795;81;21144;-35
2021/09/26 05:41:34;;;;;;;7.70;3.85;;;;;;;13.96;74.80;99576.47;1768830;81;20949;-36
2021/09/26 05:44:00;;;;;;;11.83;4.90;;;;;;;13.99;74.24;99573.76;1741166;80;20969;-36
2021/09/26 05:46:27;;;;;;;10.00;4.30;;;;;;;13.95;74.08;99575.67;1750654;81;21102;-35
2021/09/26 05:48:53;;;;;;;8.98;4.10;;;;;;;13.92;74.17;99569.05;1746987;81;21092;-35
2021/09/26 05:51:20;;;;;;;10.55;4.08;;;;;;;13.95;74.25;99577.04;1750833;80;21394;-36
2021/09/26 05:53:46;;;;;;;9.80;3.85;;;;;;;13.99;73.87;99568.91;1750408;82;21461;-36
2021/09/26 05:56:13;;;;;;;8.10;4.10;;;;;;;14.01;73.37;99567.94;1715001;83;21396;-36
2021/09/26 05:58:39;;;;;;;7.60;4.03;;;;;;;13.99;73.24;99566.95;1713932;83;21565;-36
2021/09/26 06:01:06;;;;;;;13.72;4.80;;;;;;;14.03;73.19;99569.72;1750833;81;21058;-36
2021/09/26 06:03:32;;;;;;;11.40;3.87;;;;;;;14.09;73.21;99577.16;1749338;82;21778;-35
2021/09/26 06:05:59;;;;;;;10.65;4.40;;;;;;;14.21;73.04;99579.61;1749017;82;21035;-36
2021/09/26 06:08:28;;;;;;;14.00;4.10;;;;;;;14.30;72.71;99590.19;1750147;82;20980;-36
2021/09/26 06:10:55;;;;;;;7.50;3.98;;;;;;;14.33;72.14;99588.05;1715308;83;21004;-36
2021/09/26 06:13:21;;;;;;;14.33;4.30;;;;;;;14.37;71.86;99586.77;1714140;83;21028;-36
2021/09/26 06:15:48;;;;;;;13.45;4.70;;;;;;;14.40;71.44;99590.88;1714769;83;21792;-36
2021/09/26 06:18:14;;;;;;;16.32;4.55;;;;;;;14.45;70.79;99597.92;1713518;82;21027;-36
2021/09/26 06:20:41;;;;;;;13.15;5.22;;;;;;;14.47;71.10;99603.79;1737915;81;20900;-36
2021/09/26 06:23:07;;;;;;;10.43;4.30;;;;;;;14.53;71.18;99604.41;1714936;82;21023;-36
2021/09/26 06:25:34;;;;;;;10.98;4.00;;;;;;;14.64;70.32;99599.02;1711848;83;21582;-36
2021/09/26 06:28:01;;;;;;;15.03;4.75;;;;;;;14.69;69.81;99598.09;1711328;83;21123;-36
2021/09/26 06:30:28;;;;;;;15.00;4.25;;;;;;;14.73;69.50;99600.83;1716562;82;21598;-35
2021/09/26 06:32:55;;;;;;;12.43;4.50;;;;;;;14.72;68.89;99603.34;1736306;81;21599;-36
2021/09/26 06:35:21;;;;;;;15.63;4.15;;;;;;;14.72;69.18;99602.77;1715332;80;21016;-36
2021/09/26 06:37:49;;;;;;;10.15;3.98;;;;;;;14.77;69.03;99605.72;1733865;81;21049;-36
2021/09/26 06:40:16;;;;;;;12.63;3.80;;;;;;;14.87;69.26;99605.00;1725829;81;21187;-36
2021/09/26 06:42:43;;;;;;;15.98;4.53;;;;;;;15.02;69.03;99614.05;1762452;81;21524;-35
2021/09/26 06:45:11;;;;;;;12.43;4.35;;;;;;;15.12;68.16;99611.95;1734191;81;20991;-35
2021/09/26 06:47:37;;;;;;;16.57;4.62;;;;;;;15.15;67.00;99626.98;1745406;81;21036;-35
2021/09/26 06:50:06;;;;;;;15.15;3.80;;;;;;;15.15;67.02;99622.88;1733693;82;21026;-36
2021/09/26 06:52:33;;;;;;;12.10;3.75;;;;;;;15.20;66.80;99626.61;1734799;82;21268;-36
2021/09/26 06:54:59;;;;;;;9.83;4.08;;;;;;;15.01;66.58;99590.05;1734421;80;20943;-36
2021/09/26 06:57:26;;;;;;;10.55;4.12;;;;;;;15.44;66.42;99632.58;1743255;81;21509;-36
2021/09/26 06:59:54;;;;;;;17.73;4.17;;;;;;;15.55;64.71;99634.78;1743010;82;21162;-36
2021/09/26 07:02:24;;;;;;;17.12;4.00;;;;;;;15.56;64.95;99639.87;1742963;82;21006;-36
2021/09/26 07:04:51;;;;;;;13.85;3.65;;;;;;;15.54;64.51;99639.45;1743124;82;21132;-36
2021/09/26 07:07:19;;;;;;;14.45;4.55;;;;;;;15.50;64.20;99637.85;1742703;82;20985;-37
2021/09/26 07:09:48;;;;;;;12.60;4.42;;;;;;;15.44;64.22;99643.52;1741833;82;20973;-37
2021/09/26 07:12:14;;;;;;;11.75;3.58;;;;;;;15.40;63.56;99646.21;1742743;81;21081;-37
2021/09/26 07:14:42;;;;;;;13.22;3.95;;;;;;;15.42;63.86;99645.84;1743619;81;21077;-37
2021/09/26 07:17:09;;;;;;;17.95;5.00;;;;;;;15.52;64.24;99641.81;1742801;82;21147;-37
2021/09/26 07:19:35;;;;;;;12.70;3.77;;;;;;;15.63;63.76;99648.68;1742843;82;20997;-37
2021/09/26 07:22:02;;;;;;;14.05;4.22;;;;;;;15.76;62.68;99648.52;1743121;82;21512;-37
2021/09/26 07:24:29;;;;;;;14.15;4.35;;;;;;;15.87;61.43;99642.50;1747668;80;21080;-37
2021/09/26 07:26:55;;;;;;;13.40;4.10;;;;;;;15.94;61.42;99643.08;1726170;83;21553;-37
2021/09/26 07:29:22;;;;;;;12.50;3.98;;;;;;;15.99;61.11;99638.01;1726367;83;21138;-37
2021/09/26 07:31:49;;;;;;;14.00;3.90;;;;;;;16.07;61.64;99640.19;1726351;82;21597;-37
2021/09/26 07:34:17;;;;;;;14.20;4.40;;;;;;;16.15;61.84;99643.70;1740239;81;22112;-37
2021/09/26 07:36:43;;;;;;;11.35;3.83;;;;;;;16.21;61.28;99647.03;1756164;81;21021;-37
2021/09/26 07:39:10;;;;;;;15.08;3.80;;;;;;;16.26;60.89;99647.23;1755425;81;21065;-37
2021/09/26 07:41:37;;;;;;;13.80;3.85;;;;;;;16.30;59.99;99652.90;1755679;81;21087;-37
2021/09/26 07:44:05;;;;;;;10.13;3.60;;;;;;;16.33;59.57;99653.47;1756504;81;21020;-37
2021/09/26 07:46:31;;;;;;;13.70;4.20;;;;;;;16.38;58.81;99650.93;1755472;81;20978;-37
2021/09/26 07:48:58;;;;;;;13.22;4.47;;;;;;;16.41;59.07;99651.53;1763825;81;21025;-37
2021/09/26 07:51:24;;;;;;;14.58;4.03;;;;;;;16.47;57.29;99652.69;1772353;81;21018;-37
2021/09/26 07:53:51;;;;;;;9.85;3.22;;;;;;;16.49;56.82;99656.61;1766809;80;21226;-37
2021/09/26 07:56:19;;;;;;;16.50;4.30;;;;;;;16.52;56.41;99650.34;1756529;81;21080;-37
2021/09/26 07:58:46;;;;;;;11.28;3.75;;;;;;;16.55;55.59;99657.00;1754823;80;21005;-37
2021/09/26 08:01:13;;;;;;;14.30;3.90;;;;;;;16.57;54.12;99654.64;1756069;80;21653;-37
2021/09/26 08:03:40;;;;;;;13.90;3.70;;;;;;;16.56;55.12;99653.06;1759466;81;21087;-37
2021/09/26 08:06:08;;;;;;;10.80;3.72;;;;;;;16.53;55.90;99660.70;1756509;81;21090;-37
2021/09/26 08:08:36;;;;;;;11.78;3.65;;;;;;;16.49;56.57;99668.14;1755877;81;21272;-37
2021/09/26 08:11:03;;;;;;;13.43;3.95;;;;;;;16.41;56.36;99661.87;1746102;81;21091;-37
2021/09/26 08:13:30;;;;;;;11.15;3.90;;;;;;;16.43;57.29;99662.27;1725661;83;21020;-37
2021/09/26 08:15:56;;;;;;;15.55;4.20;;;;;;;16.53;57.46;99667.55;1726823;81;21001;-37
2021/09/26 08:18:23;;;;;;;13.60;3.85;;;;;;;16.68;55.88;99666.40;1731494;81;21191;-37
2021/09/26 08:20:50;;;;;;;12.15;3.70;;;;;;;16.81;55.65;99670.28;1745806;81;21018;-37
2021/09/26 08:23:18;;;;;;;14.73;4.75;;;;;;;16.84;54.20;99669.52;1730903;81;21535;-37
2021/09/26 08:25:46;;;;;;;12.07;3.90;;;;;;;16.85;55.09;99671.06;1739377;82;21013;-37
2021/09/26 08:28:13;;;;;;;13.32;3.42;;;;;;;16.87;55.46;99673.41;1741997;82;21017;-37
2021/09/26 08:30:40;;;;;;;13.40;3.95;;;;;;;16.86;54.63;99678.11;1724193;82;21807;-37
2021/09/26 08:33:07;;;;;;;8.85;3.30;;;;;;;16.83;54.00;99676.16;1737042;82;20875;-37
2021/09/26 08:35:34;;;;;;;10.58;3.60;;;;;;;16.84;53.94;99676.37;1741791;82;21527;-37
2021/09/26 08:38:00;;;;;;;14.55;4.08;;;;;;;16.87;53.31;99675.56;1743133;82;20938;-37
2021/09/26 08:40:27;;;;;;;11.35;3.98;;;;;;;16.96;53.95;99671.05;1731502;82;20999;-37
2021/09/26 08:42:55;;;;;;;13.50;4.40;;;;;;;17.09;54.15;99665.95;1716901;82;21206;-37
2021/09/26 08:45:21;;;;;;;11.48;3.80;;;;;;;17.20;54.15;99675.69;1726062;82;20940;-37
2021/09/26 08:47:48;;;;;;;10.20;3.42;;;;;;;17.29;52.24;99664.30;1734291;82;20957;-37
2021/09/26 08:50:18;;;;;;;9.65;3.40;;;;;;;17.31;52.15;99668.80;1742568;82;21088;-37
2021/09/26 08:52:46;;;;;;;8.48;3.17;;;;;;;17.34;52.44;99661.15;1742885;82;21080;-37
2021/09/26 08:55:14;;;;;;;10.58;3.85;;;;;;;17.39;50.90;99675.81;1731412;82;22267;-37
2021/09/26 08:57:41;;;;;;;10.40;3.58;;;;;;;17.47;51.15;99679.33;1713183;83;21583;-37
2021/09/26 09:00:11;;;;;;;12.37;3.87;;;;;;;17.50;51.44;99675.19;1713509;83;21057;-37
2021/09/26 09:02:40;;;;;;;14.93;4.12;;;;;;;17.44;51.27;99678.73;1713036;83;20989;-37
2021/09/26 09:05:09;;;;;;;12.63;3.55;;;;;;;17.45;53.02;99670.70;1713304;83;21030;-37
2021/09/26 09:07:35;;;;;;;11.18;3.80;;;;;;;17.58;52.23;99669.08;1697182;82;21084;-37
2021/09/26 09:10:03;;;;;;;12.37;3.65;;;;;;;17.69;52.67;99661.03;1741250;82;21014;-37
2021/09/26 09:12:33;;;;;;;12.28;3.87;;;;;;;17.71;51.93;99662.80;1729242;82;21572;-37
2021/09/26 09:15:13;;;;;;;11.12;3.67;;;;;;;17.71;52.23;99657.91;1730550;82;21017;-37
2021/09/26 09:17:40;;;;;;;12.10;4.00;;;;;;;17.79;52.66;99660.78;1677137;85;21100;-37
2021/09/26 09:20:29;;;;;;;13.20;3.75;;;;;;;17.90;52.35;99667.00;1692617;84;21122;-37
2021/09/26 09:23:14;;;;;;;10.15;3.95;;;;;;;17.93;51.11;99674.41;1688909;84;21129;-37
2021/09/26 09:25:47;;;;;;;12.25;3.72;;;;;;;17.88;51.75;99668.56;1679932;85;21069;-37
2021/09/26 09:28:17;;;;;;;11.50;3.50;;;;;;;17.77;51.14;99665.29;1678604;85;21089;-37
2021/09/26 09:30:51;;;;;;;10.43;3.50;;;;;;;17.70;51.35;99663.19;1737552;82;21093;-37
2021/09/26 09:33:19;;;;;;;12.58;3.62;;;;;;;17.73;51.68;99664.53;1738472;82;21152;-37
2021/09/26 09:35:51;;;;;;;12.15;3.47;;;;;;;17.86;51.61;99663.50;1738066;82;20969;-37
2021/09/26 09:38:31;;;;;;;12.80;3.87;;;;;;;17.98;50.79;99669.09;1669412;85;21506;-37
2021/09/26 09:40:57;;;;;;;9.08;3.35;;;;;;;17.99;50.41;99669.29;1739725;82;20965;-37
2021/09/26 09:43:27;;;;;;;10.50;3.72;;;;;;;18.01;50.25;99666.94;1737405;82;21050;-37
2021/09/26 09:46:01;;;;;;;10.38;3.25;;;;;;;18.10;49.37;99665.31;1710446;82;21199;-37
2021/09/26 09:48:30;;;;;;;8.98;3.52;;;;;;;18.24;50.83;99660.31;1710070;83;21014;-37
2021/09/26 09:51:07;;;;;;;12.28;3.87;;;;;;;18.41;49.26;99680.55;1735209;82;20981;-37
2021/09/26 09:53:45;;;;;;;11.40;4.00;;;;;;;18.53;48.79;99674.03;1714110;82;20977;-37
2021/09/26 09:56:25;;;;;;;9.50;3.12;;;;;;;18.63;49.02;99671.79;1710357;83;21036;-37
2021/09/26 09:58:55;;;;;;;11.83;3.90;;;;;;;18.68;47.69;99665.67;1710267;82;21165;-37
2021/09/26 10:01:32;;;;;;;9.43;3.40;;;;;;;18.68;47.53;99675.28;1735692;82;21519;-37
2021/09/26 10:04:07;;;;;;;8.60;3.37;;;;;;;18.68;46.44;99664.30;1737852;82;21045;-37
2021/09/26 10:06:44;;;;;;;8.38;3.30;;;;;;;18.70;46.29;99670.14;1737753;82;21536;-37
2021/09/26 10:09:27;;;;;;;11.85;4.28;;;;;;;18.69;47.41;99670.73;1738270;82;21501;-37
2021/09/26 10:11:58;;;;;;;10.72;4.28;;;;;;;18.61;48.11;99675.52;1738097;82;21088;-37
2021/09/26 10:14:27;;;;;;;9.98;3.52;;;;;;;18.60;46.58;99680.81;1736018;82;21016;-37
2021/09/26 10:16:55;;;;;;;11.78;3.62;;;;;;;18.63;47.04;99685.52;1737515;82;21069;-37
2021/09/26 10:19:24;;;;;;;11.55;4.78;;;;;;;18.74;46.53;99684.03;1734629;82;20979;-37
2021/09/26 10:21:53;;;;;;;14.25;4.90;;;;;;;18.90;47.68;99679.38;1717099;83;21552;-37
2021/09/26 10:24:21;;;;;;;8.43;3.55;;;;;;;19.04;47.41;99690.22;1718808;82;22207;-37
2021/09/26 10:26:49;;;;;;;11.65;3.67;;;;;;;19.09;45.86;99689.78;1713226;82;21027;-37
2021/09/26 10:29:17;;;;;;;7.22;2.98;;;;;;;19.00;45.14;99689.48;1710200;82;21037;-37
2021/09/26 10:31:44;;;;;;;11.88;4.35;;;;;;;19.02;45.15;99671.41;1733131;82;21005;-38
2021/09/26 10:34:10;;;;;;;11.75;3.52;;;;;;;19.20;46.13;99678.09;1669946;86;21078;-38
2021/09/26 10:36:37;;;;;;;8.95;3.00;;;;;;;19.46;45.09;99674.66;1670950;85;22122;-38
2021/09/26 10:39:06;;;;;;;9.85;3.47;;;;;;;19.68;43.95;99681.27;1651692;85;21032;-38
2021/09/26 10:41:33;;;;;;;10.90;3.22;;;;;;;19.70;43.20;99677.53;1666821;86;21699;-38
2021/09/26 10:44:24;;;;;;;8.90;3.17;;;;;;;19.64;43.83;99671.70;1666587;84;21041;-38
2021/09/26 10:47:12;;;;;;;10.53;3.27;;;;;;;19.72;44.97;99680.63;1666826;86;21097;-38
2021/09/26 10:49:41;;;;;;;9.73;3.27;;;;;;;19.90;43.73;99662.68;1627021;86;21151;-38
2021/09/26 10:52:33;;;;;;;10.28;3.30;;;;;;;20.07;43.94;99676.61;1666827;86;21000;-38
2021/09/26 10:55:29;;;;;;;7.42;2.98;;;;;;;20.20;43.71;99665.20;1666682;86;21000;-38
2021/09/26 10:58:09;;;;;;;7.78;3.15;;;;;;;20.33;42.83;99675.23;1665083;86;21076;-38
2021/09/26 11:00:57;;;;;;;11.30;3.55;;;;;;;20.48;42.87;99670.91;1666858;86;21060;-38
2021/09/26 11:03:40;;;;;;;7.95;3.22;;;;;;;20.64;42.27;99672.39;1666537;85;21163;-38
2021/09/26 11:06:28;;;;;;;8.35;3.15;;;;;;;20.76;41.95;99667.07;1667267;84;21013;-38
2021/09/26 11:09:02;;;;;;;10.48;3.45;;;;;;;20.85;41.79;99661.60;1660283;86;21512;-38
2021/09/26 11:11:44;;;;;;;9.08;2.90;;;;;;;20.85;40.60;99669.27;1666795;86;21101;-38
2021/09/26 11:14:11;;;;;;;6.75;2.77;;;;;;;20.81;41.08;99657.55;1667026;86;21069;-38
2021/09/26 11:16:59;;;;;;;8.28;3.10;;;;;;;20.90;40.88;99656.39;1666743;86;21807;-38
2021/09/26 11:19:27;;;;;;;6.72;2.33;;;;;;;20.99;39.36;99663.50;1665992;86;21108;-38
2021/09/26 11:21:58;;;;;;;7.60;2.77;;;;;;;21.02;38.91;99658.52;1666708;86;21065;-38
2021/09/26 11:24:33;;;;;;;9.78;2.75;;;;;;;21.04;39.50;99664.39;1666758;84;21053;-38
2021/09/26 11:27:13;;;;;;;8.58;2.87;;;;;;;21.02;39.14;99659.89;1665940;86;21134;-38
2021/09/26 11:29:48;;;;;;;7.90;2.80;;;;;;;21.01;39.75;99660.33;1666554;85;21854;-38
2021/09/26 11:32:30;;;;;;;7.72;2.98;;;;;;;20.97;39.23;99659.59;1666660;86;21028;-38
2021/09/26 11:34:59;;;;;;;7.62;2.80;;;;;;;20.96;39.58;99658.81;1687632;84;21029;-38
2021/09/26 11:39:27;;;;;;;6.40;2.60;;;;;;;21.13;38.10;99659.13;1797082;79;21870;-38
2021/09/26 11:41:54;;;;;;;7.83;2.33;;;;;;;21.11;39.43;99672.52;1757107;81;20918;-38